sensor_id;sensor_type;location;lat;lon;timestamp;P1;durP1;ratioP1;P2;durP2;ratioP2
54384;SDS011;40284;52.878;5.998;2023-06-19T00:02:18;9.30;;;8.15;;
54384;SDS011;40284;52.878;5.998;2023-06-19T00:04:44;8.80;;;7.90;;
54384;SDS011;40284;52.878;5.998;2023-06-19T00:07:10;8.77;;;7.90;;
54384;SDS011;40284;52.878;5.998;2023-06-19T00:09:36;9.57;;;8.05;;
54384;SDS011;40284;52.878;5.998;2023-06-19T00:12:02;8.85;;;7.90;;
54384;SDS011;40284;52.878;5.998;2023-06-19T00:14:29;8.60;;;7.70;;
54384;SDS011;40284;52.878;5.998;2023-06-19T00:16:55;8.98;;;7.82;;
54384;SDS011;40284;52.878;5.998;2023-06-19T00:19:21;9.55;;;7.90;;
54384;SDS011;40284;52.878;5.998;2023-06-19T00:21:47;8.70;;;7.45;;
54384;SDS011;40284;52.878;5.998;2023-06-19T00:24:13;10.57;;;7.32;;
54384;SDS011;40284;52.878;5.998;2023-06-19T00:26:39;10.88;;;8.90;;
54384;SDS011;40284;52.878;5.998;2023-06-19T00:29:07;9.98;;;8.18;;
54384;SDS011;40284;52.878;5.998;2023-06-19T00:31:33;9.35;;;7.97;;
54384;SDS011;40284;52.878;5.998;2023-06-19T00:34:02;8.88;;;7.60;;
54384;SDS011;40284;52.878;5.998;2023-06-19T00:36:28;8.70;;;7.78;;
54384;SDS011;40284;52.878;5.998;2023-06-19T00:38:54;8.88;;;7.50;;
54384;SDS011;40284;52.878;5.998;2023-06-19T00:41:21;10.23;;;8.32;;
54384;SDS011;40284;52.878;5.998;2023-06-19T00:43:47;8.68;;;7.78;;
54384;SDS011;40284;52.878;5.998;2023-06-19T00:46:13;8.55;;;7.75;;
54384;SDS011;40284;52.878;5.998;2023-06-19T00:48:39;11.82;;;7.85;;
54384;SDS011;40284;52.878;5.998;2023-06-19T00:51:06;12.32;;;8.20;;
54384;SDS011;40284;52.878;5.998;2023-06-19T00:53:32;11.45;;;7.22;;
54384;SDS011;40284;52.878;5.998;2023-06-19T00:55:59;9.98;;;7.90;;
54384;SDS011;40284;52.878;5.998;2023-06-19T00:58:26;11.48;;;8.40;;
54384;SDS011;40284;52.878;5.998;2023-06-19T01:00:52;9.23;;;8.00;;
54384;SDS011;40284;52.878;5.998;2023-06-19T01:03:18;11.70;;;7.82;;
54384;SDS011;40284;52.878;5.998;2023-06-19T01:05:44;10.73;;;7.78;;
54384;SDS011;40284;52.878;5.998;2023-06-19T01:10:48;9.00;;;8.10;;
54384;SDS011;40284;52.878;5.998;2023-06-19T01:16:01;10.48;;;7.55;;
54384;SDS011;40284;52.878;5.998;2023-06-19T01:18:27;11.18;;;7.82;;
54384;SDS011;40284;52.878;5.998;2023-06-19T01:20:54;8.93;;;8.07;;
54384;SDS011;40284;52.878;5.998;2023-06-19T01:23:20;8.38;;;7.38;;
54384;SDS011;40284;52.878;5.998;2023-06-19T01:25:47;10.07;;;7.50;;
54384;SDS011;40284;52.878;5.998;2023-06-19T01:28:13;14.13;;;8.30;;
54384;SDS011;40284;52.878;5.998;2023-06-19T01:30:40;11.07;;;7.93;;
54384;SDS011;40284;52.878;5.998;2023-06-19T01:33:12;9.40;;;7.80;;
54384;SDS011;40284;52.878;5.998;2023-06-19T01:35:41;9.57;;;7.80;;
54384;SDS011;40284;52.878;5.998;2023-06-19T01:38:09;10.63;;;7.90;;
54384;SDS011;40284;52.878;5.998;2023-06-19T01:40:36;9.55;;;8.05;;
54384;SDS011;40284;52.878;5.998;2023-06-19T01:43:02;11.57;;;7.97;;
54384;SDS011;40284;52.878;5.998;2023-06-19T01:45:29;8.68;;;7.55;;
54384;SDS011;40284;52.878;5.998;2023-06-19T01:47:56;9.20;;;8.23;;
54384;SDS011;40284;52.878;5.998;2023-06-19T01:50:22;8.00;;;7.20;;
54384;SDS011;40284;52.878;5.998;2023-06-19T01:52:48;15.43;;;7.95;;
54384;SDS011;40284;52.878;5.998;2023-06-19T01:55:14;8.23;;;7.18;;
54384;SDS011;40284;52.878;5.998;2023-06-19T01:57:41;10.05;;;7.95;;
54384;SDS011;40284;52.878;5.998;2023-06-19T02:00:07;9.48;;;7.65;;
54384;SDS011;40284;52.878;5.998;2023-06-19T02:02:35;10.73;;;8.00;;
54384;SDS011;40284;52.878;5.998;2023-06-19T02:05:01;11.18;;;8.07;;
54384;SDS011;40284;52.878;5.998;2023-06-19T02:07:27;9.23;;;7.75;;
54384;SDS011;40284;52.878;5.998;2023-06-19T02:09:53;9.90;;;7.55;;
54384;SDS011;40284;52.878;5.998;2023-06-19T02:12:19;10.32;;;8.45;;
54384;SDS011;40284;52.878;5.998;2023-06-19T02:14:45;8.73;;;7.82;;
54384;SDS011;40284;52.878;5.998;2023-06-19T02:17:12;9.27;;;8.00;;
54384;SDS011;40284;52.878;5.998;2023-06-19T02:19:38;11.25;;;7.70;;
54384;SDS011;40284;52.878;5.998;2023-06-19T02:22:04;9.13;;;8.15;;
54384;SDS011;40284;52.878;5.998;2023-06-19T02:24:31;11.82;;;7.90;;
54384;SDS011;40284;52.878;5.998;2023-06-19T02:26:57;9.52;;;8.55;;
54384;SDS011;40284;52.878;5.998;2023-06-19T02:29:24;8.77;;;7.93;;
54384;SDS011;40284;52.878;5.998;2023-06-19T02:31:50;10.25;;;8.18;;
54384;SDS011;40284;52.878;5.998;2023-06-19T02:34:16;10.52;;;8.02;;
54384;SDS011;40284;52.878;5.998;2023-06-19T02:36:42;8.48;;;7.57;;
54384;SDS011;40284;52.878;5.998;2023-06-19T02:39:08;9.00;;;7.40;;
54384;SDS011;40284;52.878;5.998;2023-06-19T02:41:34;9.02;;;8.10;;
54384;SDS011;40284;52.878;5.998;2023-06-19T02:44:02;10.55;;;7.78;;
54384;SDS011;40284;52.878;5.998;2023-06-19T02:46:28;8.52;;;7.60;;
54384;SDS011;40284;52.878;5.998;2023-06-19T02:48:54;9.82;;;8.00;;
54384;SDS011;40284;52.878;5.998;2023-06-19T02:51:20;10.73;;;8.23;;
54384;SDS011;40284;52.878;5.998;2023-06-19T02:53:46;9.20;;;7.78;;
54384;SDS011;40284;52.878;5.998;2023-06-19T02:56:12;8.35;;;7.50;;
54384;SDS011;40284;52.878;5.998;2023-06-19T02:58:38;10.38;;;7.82;;
54384;SDS011;40284;52.878;5.998;2023-06-19T03:01:04;8.82;;;7.93;;
54384;SDS011;40284;52.878;5.998;2023-06-19T03:03:33;10.57;;;7.53;;
54384;SDS011;40284;52.878;5.998;2023-06-19T03:06:06;8.77;;;6.93;;
54384;SDS011;40284;52.878;5.998;2023-06-19T03:08:35;9.00;;;7.20;;
54384;SDS011;40284;52.878;5.998;2023-06-19T03:11:02;9.70;;;7.43;;
54384;SDS011;40284;52.878;5.998;2023-06-19T03:13:44;9.02;;;7.22;;
54384;SDS011;40284;52.878;5.998;2023-06-19T03:16:11;8.98;;;7.57;;
54384;SDS011;40284;52.878;5.998;2023-06-19T03:18:37;10.13;;;6.72;;
54384;SDS011;40284;52.878;5.998;2023-06-19T03:21:03;7.95;;;7.10;;
54384;SDS011;40284;52.878;5.998;2023-06-19T03:23:29;8.00;;;6.65;;
54384;SDS011;40284;52.878;5.998;2023-06-19T03:25:56;6.95;;;5.22;;
54384;SDS011;40284;52.878;5.998;2023-06-19T03:28:23;7.10;;;4.90;;
54384;SDS011;40284;52.878;5.998;2023-06-19T03:30:49;4.57;;;3.90;;
54384;SDS011;40284;52.878;5.998;2023-06-19T03:33:16;6.63;;;4.20;;
54384;SDS011;40284;52.878;5.998;2023-06-19T03:35:42;7.45;;;3.75;;
54384;SDS011;40284;52.878;5.998;2023-06-19T03:38:09;6.78;;;3.72;;
54384;SDS011;40284;52.878;5.998;2023-06-19T03:40:35;7.30;;;4.75;;
54384;SDS011;40284;52.878;5.998;2023-06-19T03:43:01;6.70;;;3.60;;
54384;SDS011;40284;52.878;5.998;2023-06-19T03:45:27;7.18;;;3.60;;
54384;SDS011;40284;52.878;5.998;2023-06-19T03:47:53;4.22;;;3.28;;
54384;SDS011;40284;52.878;5.998;2023-06-19T03:50:19;6.70;;;3.65;;
54384;SDS011;40284;52.878;5.998;2023-06-19T03:52:45;4.13;;;3.00;;
54384;SDS011;40284;52.878;5.998;2023-06-19T03:55:11;5.90;;;2.97;;
54384;SDS011;40284;52.878;5.998;2023-06-19T03:57:37;3.65;;;2.72;;
54384;SDS011;40284;52.878;5.998;2023-06-19T04:00:04;7.18;;;3.08;;
54384;SDS011;40284;52.878;5.998;2023-06-19T04:02:32;8.07;;;2.72;;
54384;SDS011;40284;52.878;5.998;2023-06-19T04:04:59;5.75;;;3.10;;
54384;SDS011;40284;52.878;5.998;2023-06-19T04:07:25;5.25;;;3.10;;
54384;SDS011;40284;52.878;5.998;2023-06-19T04:09:51;4.70;;;2.88;;
54384;SDS011;40284;52.878;5.998;2023-06-19T04:12:17;5.65;;;3.20;;
54384;SDS011;40284;52.878;5.998;2023-06-19T04:14:43;4.68;;;3.03;;
54384;SDS011;40284;52.878;5.998;2023-06-19T04:17:09;5.07;;;3.25;;
54384;SDS011;40284;52.878;5.998;2023-06-19T04:19:35;5.30;;;3.17;;
54384;SDS011;40284;52.878;5.998;2023-06-19T04:22:01;5.85;;;3.33;;
54384;SDS011;40284;52.878;5.998;2023-06-19T04:24:28;4.72;;;3.28;;
54384;SDS011;40284;52.878;5.998;2023-06-19T04:26:54;4.68;;;3.65;;
54384;SDS011;40284;52.878;5.998;2023-06-19T04:29:20;5.70;;;4.78;;
54384;SDS011;40284;52.878;5.998;2023-06-19T04:31:46;6.53;;;4.22;;
54384;SDS011;40284;52.878;5.998;2023-06-19T04:34:21;5.65;;;3.80;;
54384;SDS011;40284;52.878;5.998;2023-06-19T04:36:47;4.97;;;4.32;;
54384;SDS011;40284;52.878;5.998;2023-06-19T04:39:13;7.30;;;4.38;;
54384;SDS011;40284;52.878;5.998;2023-06-19T04:41:40;5.15;;;3.83;;
54384;SDS011;40284;52.878;5.998;2023-06-19T04:44:08;5.60;;;4.15;;
54384;SDS011;40284;52.878;5.998;2023-06-19T04:46:36;5.05;;;4.05;;
54384;SDS011;40284;52.878;5.998;2023-06-19T04:49:03;6.30;;;4.28;;
54384;SDS011;40284;52.878;5.998;2023-06-19T04:51:30;7.38;;;4.97;;
54384;SDS011;40284;52.878;5.998;2023-06-19T04:53:57;7.72;;;4.35;;
54384;SDS011;40284;52.878;5.998;2023-06-19T04:56:23;9.15;;;5.40;;
54384;SDS011;40284;52.878;5.998;2023-06-19T04:58:50;5.97;;;4.75;;
54384;SDS011;40284;52.878;5.998;2023-06-19T05:01:16;6.53;;;5.47;;
54384;SDS011;40284;52.878;5.998;2023-06-19T05:03:43;6.85;;;6.15;;
54384;SDS011;40284;52.878;5.998;2023-06-19T05:06:12;6.55;;;5.30;;
54384;SDS011;40284;52.878;5.998;2023-06-19T05:08:38;6.78;;;5.10;;
54384;SDS011;40284;52.878;5.998;2023-06-19T05:11:04;9.82;;;7.22;;
54384;SDS011;40284;52.878;5.998;2023-06-19T05:13:30;10.57;;;8.15;;
54384;SDS011;40284;52.878;5.998;2023-06-19T05:15:56;10.70;;;8.32;;
54384;SDS011;40284;52.878;5.998;2023-06-19T05:18:22;8.82;;;7.93;;
54384;SDS011;40284;52.878;5.998;2023-06-19T05:20:49;9.23;;;8.23;;
54384;SDS011;40284;52.878;5.998;2023-06-19T05:23:15;10.32;;;9.18;;
54384;SDS011;40284;52.878;5.998;2023-06-19T05:25:41;11.07;;;8.43;;
54384;SDS011;40284;52.878;5.998;2023-06-19T05:28:08;11.25;;;9.77;;
54384;SDS011;40284;52.878;5.998;2023-06-19T05:30:34;12.20;;;9.77;;
54384;SDS011;40284;52.878;5.998;2023-06-19T05:33:01;13.90;;;10.80;;
54384;SDS011;40284;52.878;5.998;2023-06-19T05:35:27;12.15;;;11.05;;
54384;SDS011;40284;52.878;5.998;2023-06-19T05:37:53;13.50;;;11.48;;
54384;SDS011;40284;52.878;5.998;2023-06-19T05:40:19;13.05;;;11.75;;
54384;SDS011;40284;52.878;5.998;2023-06-19T05:42:45;11.70;;;10.60;;
54384;SDS011;40284;52.878;5.998;2023-06-19T05:45:11;12.63;;;9.90;;
54384;SDS011;40284;52.878;5.998;2023-06-19T05:47:43;9.38;;;8.45;;
54384;SDS011;40284;52.878;5.998;2023-06-19T05:50:09;11.73;;;9.90;;
54384;SDS011;40284;52.878;5.998;2023-06-19T05:52:35;9.48;;;8.57;;
54384;SDS011;40284;52.878;5.998;2023-06-19T05:55:01;9.68;;;7.82;;
54384;SDS011;40284;52.878;5.998;2023-06-19T05:57:27;8.60;;;7.18;;
54384;SDS011;40284;52.878;5.998;2023-06-19T05:59:53;7.93;;;7.22;;
54384;SDS011;40284;52.878;5.998;2023-06-19T06:02:20;8.05;;;7.07;;
54384;SDS011;40284;52.878;5.998;2023-06-19T06:04:46;7.57;;;6.88;;
54384;SDS011;40284;52.878;5.998;2023-06-19T06:07:12;10.68;;;8.38;;
54384;SDS011;40284;52.878;5.998;2023-06-19T06:09:38;9.63;;;8.63;;
54384;SDS011;40284;52.878;5.998;2023-06-19T06:12:04;11.45;;;10.35;;
54384;SDS011;40284;52.878;5.998;2023-06-19T06:14:31;10.23;;;9.13;;
54384;SDS011;40284;52.878;5.998;2023-06-19T06:16:56;10.13;;;8.85;;
54384;SDS011;40284;52.878;5.998;2023-06-19T06:19:22;11.40;;;10.30;;
54384;SDS011;40284;52.878;5.998;2023-06-19T06:21:49;11.45;;;10.35;;
54384;SDS011;40284;52.878;5.998;2023-06-19T06:24:15;12.60;;;11.40;;
54384;SDS011;40284;52.878;5.998;2023-06-19T06:26:41;12.70;;;11.50;;
54384;SDS011;40284;52.878;5.998;2023-06-19T06:29:07;13.50;;;12.20;;
54384;SDS011;40284;52.878;5.998;2023-06-19T06:31:34;14.75;;;13.32;;
54384;SDS011;40284;52.878;5.998;2023-06-19T06:34:00;20.02;;;17.20;;
54384;SDS011;40284;52.878;5.998;2023-06-19T06:36:26;19.25;;;17.25;;
54384;SDS011;40284;52.878;5.998;2023-06-19T06:38:52;20.88;;;17.77;;
54384;SDS011;40284;52.878;5.998;2023-06-19T06:41:18;22.17;;;19.48;;
54384;SDS011;40284;52.878;5.998;2023-06-19T06:43:44;21.80;;;19.13;;
54384;SDS011;40284;52.878;5.998;2023-06-19T06:46:10;21.02;;;18.83;;
54384;SDS011;40284;52.878;5.998;2023-06-19T06:48:36;23.35;;;20.63;;
54384;SDS011;40284;52.878;5.998;2023-06-19T06:51:03;22.33;;;19.10;;
54384;SDS011;40284;52.878;5.998;2023-06-19T06:53:29;23.95;;;18.50;;
54384;SDS011;40284;52.878;5.998;2023-06-19T06:55:57;20.60;;;18.40;;
54384;SDS011;40284;52.878;5.998;2023-06-19T06:58:24;21.27;;;18.38;;
54384;SDS011;40284;52.878;5.998;2023-06-19T07:00:50;20.33;;;17.63;;
54384;SDS011;40284;52.878;5.998;2023-06-19T07:03:17;19.67;;;16.77;;
54384;SDS011;40284;52.878;5.998;2023-06-19T07:05:43;18.73;;;16.73;;
54384;SDS011;40284;52.878;5.998;2023-06-19T07:08:09;18.52;;;16.63;;
54384;SDS011;40284;52.878;5.998;2023-06-19T07:10:35;22.00;;;17.95;;
54384;SDS011;40284;52.878;5.998;2023-06-19T07:13:01;17.73;;;15.77;;
54384;SDS011;40284;52.878;5.998;2023-06-19T07:15:28;16.45;;;14.13;;
54384;SDS011;40284;52.878;5.998;2023-06-19T07:17:54;16.73;;;14.95;;
54384;SDS011;40284;52.878;5.998;2023-06-19T07:20:20;20.08;;;15.00;;
54384;SDS011;40284;52.878;5.998;2023-06-19T07:22:46;16.33;;;14.25;;
54384;SDS011;40284;52.878;5.998;2023-06-19T07:25:12;14.85;;;13.35;;
54384;SDS011;40284;52.878;5.998;2023-06-19T07:27:40;18.00;;;14.90;;
54384;SDS011;40284;52.878;5.998;2023-06-19T07:30:06;14.65;;;13.15;;
54384;SDS011;40284;52.878;5.998;2023-06-19T07:32:32;15.63;;;13.73;;
54384;SDS011;40284;52.878;5.998;2023-06-19T07:34:58;15.40;;;13.70;;
54384;SDS011;40284;52.878;5.998;2023-06-19T07:37:24;14.30;;;12.80;;
54384;SDS011;40284;52.878;5.998;2023-06-19T07:39:52;14.43;;;12.00;;
54384;SDS011;40284;52.878;5.998;2023-06-19T07:42:18;13.68;;;11.63;;
54384;SDS011;40284;52.878;5.998;2023-06-19T07:44:45;11.75;;;10.25;;
54384;SDS011;40284;52.878;5.998;2023-06-19T07:47:11;10.90;;;9.65;;
54384;SDS011;40284;52.878;5.998;2023-06-19T07:49:38;13.05;;;10.48;;
54384;SDS011;40284;52.878;5.998;2023-06-19T07:52:04;11.57;;;9.80;;
54384;SDS011;40284;52.878;5.998;2023-06-19T07:54:31;9.02;;;7.22;;
54384;SDS011;40284;52.878;5.998;2023-06-19T07:56:57;7.13;;;6.00;;
54384;SDS011;40284;52.878;5.998;2023-06-19T07:59:23;7.13;;;5.25;;
54384;SDS011;40284;52.878;5.998;2023-06-19T08:01:49;5.70;;;5.10;;
54384;SDS011;40284;52.878;5.998;2023-06-19T08:04:15;8.00;;;5.22;;
54384;SDS011;40284;52.878;5.998;2023-06-19T08:06:41;6.38;;;4.65;;
54384;SDS011;40284;52.878;5.998;2023-06-19T08:09:07;5.25;;;3.90;;
54384;SDS011;40284;52.878;5.998;2023-06-19T08:11:33;5.15;;;3.53;;
54384;SDS011;40284;52.878;5.998;2023-06-19T08:14:00;4.32;;;3.80;;
54384;SDS011;40284;52.878;5.998;2023-06-19T08:16:26;5.88;;;3.92;;
54384;SDS011;40284;52.878;5.998;2023-06-19T08:18:52;4.80;;;3.88;;
54384;SDS011;40284;52.878;5.998;2023-06-19T08:21:18;12.45;;;5.97;;
54384;SDS011;40284;52.878;5.998;2023-06-19T08:23:46;72.40;;;13.80;;
54384;SDS011;40284;52.878;5.998;2023-06-19T08:26:13;7.57;;;6.38;;
54384;SDS011;40284;52.878;5.998;2023-06-19T08:28:39;10.75;;;6.22;;
54384;SDS011;40284;52.878;5.998;2023-06-19T08:31:06;8.35;;;7.35;;
54384;SDS011;40284;52.878;5.998;2023-06-19T08:33:34;36.42;;;12.27;;
54384;SDS011;40284;52.878;5.998;2023-06-19T08:36:03;15.40;;;9.30;;
54384;SDS011;40284;52.878;5.998;2023-06-19T08:38:29;13.25;;;9.68;;
54384;SDS011;40284;52.878;5.998;2023-06-19T08:40:55;12.68;;;10.10;;
54384;SDS011;40284;52.878;5.998;2023-06-19T08:43:21;13.20;;;10.27;;
54384;SDS011;40284;52.878;5.998;2023-06-19T08:48:36;14.38;;;12.77;;
54384;SDS011;40284;52.878;5.998;2023-06-19T08:51:03;15.43;;;13.32;;
54384;SDS011;40284;52.878;5.998;2023-06-19T08:53:32;16.08;;;13.90;;
54384;SDS011;40284;52.878;5.998;2023-06-19T08:55:59;14.95;;;13.45;;
54384;SDS011;40284;52.878;5.998;2023-06-19T08:58:25;14.98;;;13.38;;
54384;SDS011;40284;52.878;5.998;2023-06-19T09:00:51;16.30;;;14.60;;
54384;SDS011;40284;52.878;5.998;2023-06-19T09:03:20;16.67;;;13.00;;
54384;SDS011;40284;52.878;5.998;2023-06-19T09:05:47;17.40;;;15.13;;
54384;SDS011;40284;52.878;5.998;2023-06-19T09:08:17;19.95;;;14.32;;
54384;SDS011;40284;52.878;5.998;2023-06-19T09:10:53;16.25;;;14.40;;
54384;SDS011;40284;52.878;5.998;2023-06-19T09:13:19;16.25;;;14.63;;
54384;SDS011;40284;52.878;5.998;2023-06-19T09:15:45;15.75;;;14.05;;
54384;SDS011;40284;52.878;5.998;2023-06-19T09:18:11;18.42;;;14.90;;
54384;SDS011;40284;52.878;5.998;2023-06-19T09:20:38;15.45;;;13.57;;
54384;SDS011;40284;52.878;5.998;2023-06-19T09:23:09;14.32;;;12.52;;
54384;SDS011;40284;52.878;5.998;2023-06-19T09:25:45;15.02;;;12.52;;
54384;SDS011;40284;52.878;5.998;2023-06-19T09:28:25;13.73;;;10.52;;
54384;SDS011;40284;52.878;5.998;2023-06-19T09:30:58;12.73;;;9.68;;
54384;SDS011;40284;52.878;5.998;2023-06-19T09:33:29;11.70;;;9.73;;
54384;SDS011;40284;52.878;5.998;2023-06-19T09:35:58;10.15;;;9.10;;
54384;SDS011;40284;52.878;5.998;2023-06-19T09:38:26;10.57;;;8.88;;
54384;SDS011;40284;52.878;5.998;2023-06-19T09:40:52;10.90;;;8.90;;
54384;SDS011;40284;52.878;5.998;2023-06-19T09:43:19;9.68;;;8.27;;
54384;SDS011;40284;52.878;5.998;2023-06-19T09:45:48;10.55;;;9.52;;
54384;SDS011;40284;52.878;5.998;2023-06-19T09:48:18;10.25;;;9.25;;
54384;SDS011;40284;52.878;5.998;2023-06-19T09:50:50;13.25;;;10.27;;
54384;SDS011;40284;52.878;5.998;2023-06-19T09:53:20;10.00;;;9.00;;
54384;SDS011;40284;52.878;5.998;2023-06-19T09:55:49;11.13;;;8.68;;
54384;SDS011;40284;52.878;5.998;2023-06-19T09:58:17;11.38;;;10.05;;
54384;SDS011;40284;52.878;5.998;2023-06-19T10:00:44;14.35;;;10.55;;
54384;SDS011;40284;52.878;5.998;2023-06-19T10:03:13;14.75;;;10.80;;
54384;SDS011;40284;52.878;5.998;2023-06-19T10:05:41;15.90;;;10.13;;
54384;SDS011;40284;52.878;5.998;2023-06-19T10:08:07;18.42;;;11.80;;
54384;SDS011;40284;52.878;5.998;2023-06-19T10:10:34;11.98;;;9.50;;
54384;SDS011;40284;52.878;5.998;2023-06-19T10:13:13;16.05;;;9.90;;
54384;SDS011;40284;52.878;5.998;2023-06-19T10:15:40;11.57;;;9.95;;
54384;SDS011;40284;52.878;5.998;2023-06-19T10:18:14;12.45;;;10.05;;
54384;SDS011;40284;52.878;5.998;2023-06-19T10:20:44;14.45;;;10.75;;
54384;SDS011;40284;52.878;5.998;2023-06-19T10:23:12;11.93;;;10.63;;
54384;SDS011;40284;52.878;5.998;2023-06-19T10:25:41;16.02;;;11.13;;
54384;SDS011;40284;52.878;5.998;2023-06-19T10:30:55;16.48;;;12.30;;
54384;SDS011;40284;52.878;5.998;2023-06-19T10:33:22;14.50;;;12.90;;
54384;SDS011;40284;52.878;5.998;2023-06-19T10:35:49;13.25;;;11.95;;
54384;SDS011;40284;52.878;5.998;2023-06-19T10:38:15;14.05;;;12.35;;
54384;SDS011;40284;52.878;5.998;2023-06-19T10:40:42;14.52;;;12.57;;
54384;SDS011;40284;52.878;5.998;2023-06-19T10:43:09;17.27;;;14.30;;
54384;SDS011;40284;52.878;5.998;2023-06-19T10:45:35;16.58;;;12.65;;
54384;SDS011;40284;52.878;5.998;2023-06-19T10:48:02;15.45;;;13.02;;
54384;SDS011;40284;52.878;5.998;2023-06-19T10:50:29;18.60;;;14.65;;
54384;SDS011;40284;52.878;5.998;2023-06-19T10:52:59;17.98;;;15.18;;
54384;SDS011;40284;52.878;5.998;2023-06-19T10:55:25;17.77;;;15.07;;
54384;SDS011;40284;52.878;5.998;2023-06-19T10:57:51;19.38;;;15.15;;
54384;SDS011;40284;52.878;5.998;2023-06-19T11:00:24;20.45;;;15.40;;
54384;SDS011;40284;52.878;5.998;2023-06-19T11:02:51;17.40;;;14.52;;
54384;SDS011;40284;52.878;5.998;2023-06-19T11:05:19;15.93;;;13.40;;
54384;SDS011;40284;52.878;5.998;2023-06-19T11:10:21;17.65;;;13.10;;
54384;SDS011;40284;52.878;5.998;2023-06-19T11:12:48;13.85;;;11.27;;
54384;SDS011;40284;52.878;5.998;2023-06-19T11:15:14;15.10;;;11.48;;
54384;SDS011;40284;52.878;5.998;2023-06-19T11:17:40;16.33;;;11.73;;
54384;SDS011;40284;52.878;5.998;2023-06-19T11:20:13;17.40;;;10.50;;
54384;SDS011;40284;52.878;5.998;2023-06-19T11:22:40;14.07;;;11.48;;
54384;SDS011;40284;52.878;5.998;2023-06-19T11:25:07;17.88;;;12.88;;
54384;SDS011;40284;52.878;5.998;2023-06-19T11:27:34;12.60;;;10.32;;
54384;SDS011;40284;52.878;5.998;2023-06-19T11:30:03;14.18;;;9.30;;
54384;SDS011;40284;52.878;5.998;2023-06-19T11:32:30;14.15;;;9.32;;
54384;SDS011;40284;52.878;5.998;2023-06-19T11:34:56;10.18;;;9.15;;
54384;SDS011;40284;52.878;5.998;2023-06-19T11:37:23;13.73;;;9.80;;
54384;SDS011;40284;52.878;5.998;2023-06-19T11:39:49;11.20;;;10.00;;
54384;SDS011;40284;52.878;5.998;2023-06-19T11:42:17;11.90;;;9.80;;
54384;SDS011;40284;52.878;5.998;2023-06-19T11:44:56;14.95;;;11.45;;
54384;SDS011;40284;52.878;5.998;2023-06-19T11:47:22;16.27;;;11.65;;
54384;SDS011;40284;52.878;5.998;2023-06-19T11:49:49;17.95;;;11.60;;
54384;SDS011;40284;52.878;5.998;2023-06-19T11:52:16;13.52;;;11.27;;
54384;SDS011;40284;52.878;5.998;2023-06-19T11:54:42;14.55;;;11.80;;
54384;SDS011;40284;52.878;5.998;2023-06-19T11:57:09;15.90;;;11.90;;
54384;SDS011;40284;52.878;5.998;2023-06-19T11:59:39;17.85;;;12.15;;
54384;SDS011;40284;52.878;5.998;2023-06-19T12:02:05;13.48;;;11.40;;
54384;SDS011;40284;52.878;5.998;2023-06-19T12:04:31;14.00;;;12.15;;
54384;SDS011;40284;52.878;5.998;2023-06-19T12:06:57;15.32;;;11.75;;
54384;SDS011;40284;52.878;5.998;2023-06-19T12:09:24;15.13;;;12.07;;
54384;SDS011;40284;52.878;5.998;2023-06-19T12:11:50;18.95;;;13.93;;
54384;SDS011;40284;52.878;5.998;2023-06-19T12:14:16;15.23;;;13.55;;
54384;SDS011;40284;52.878;5.998;2023-06-19T12:16:43;15.95;;;11.93;;
54384;SDS011;40284;52.878;5.998;2023-06-19T12:19:11;16.40;;;12.40;;
54384;SDS011;40284;52.878;5.998;2023-06-19T12:21:37;15.45;;;12.05;;
54384;SDS011;40284;52.878;5.998;2023-06-19T12:24:03;16.45;;;12.55;;
54384;SDS011;40284;52.878;5.998;2023-06-19T12:26:29;16.17;;;11.40;;
54384;SDS011;40284;52.878;5.998;2023-06-19T12:28:56;21.05;;;14.23;;
54384;SDS011;40284;52.878;5.998;2023-06-19T12:31:22;17.38;;;11.98;;
54384;SDS011;40284;52.878;5.998;2023-06-19T12:33:48;15.30;;;12.10;;
54384;SDS011;40284;52.878;5.998;2023-06-19T12:36:14;15.82;;;12.48;;
54384;SDS011;40284;52.878;5.998;2023-06-19T12:38:40;15.43;;;11.90;;
54384;SDS011;40284;52.878;5.998;2023-06-19T12:41:06;15.45;;;11.70;;
54384;SDS011;40284;52.878;5.998;2023-06-19T12:43:33;14.02;;;10.02;;
54384;SDS011;40284;52.878;5.998;2023-06-19T12:45:59;12.38;;;10.98;;
54384;SDS011;40284;52.878;5.998;2023-06-19T12:48:26;13.80;;;10.55;;
54384;SDS011;40284;52.878;5.998;2023-06-19T12:50:52;13.90;;;11.30;;
54384;SDS011;40284;52.878;5.998;2023-06-19T12:53:18;11.38;;;10.27;;
54384;SDS011;40284;52.878;5.998;2023-06-19T12:55:44;12.85;;;11.20;;
54384;SDS011;40284;52.878;5.998;2023-06-19T12:58:10;15.38;;;11.82;;
54384;SDS011;40284;52.878;5.998;2023-06-19T13:00:37;15.18;;;10.25;;
54384;SDS011;40284;52.878;5.998;2023-06-19T13:03:03;16.48;;;10.93;;
54384;SDS011;40284;52.878;5.998;2023-06-19T13:05:29;13.70;;;11.00;;
54384;SDS011;40284;52.878;5.998;2023-06-19T13:07:55;12.27;;;10.32;;
54384;SDS011;40284;52.878;5.998;2023-06-19T13:10:21;14.38;;;11.52;;
54384;SDS011;40284;52.878;5.998;2023-06-19T13:12:47;14.95;;;10.63;;
54384;SDS011;40284;52.878;5.998;2023-06-19T13:15:13;12.25;;;10.02;;
54384;SDS011;40284;52.878;5.998;2023-06-19T13:17:39;12.48;;;9.90;;
54384;SDS011;40284;52.878;5.998;2023-06-19T13:20:05;10.38;;;8.63;;
54384;SDS011;40284;52.878;5.998;2023-06-19T13:22:32;11.88;;;9.27;;
54384;SDS011;40284;52.878;5.998;2023-06-19T13:24:58;14.68;;;10.48;;
54384;SDS011;40284;52.878;5.998;2023-06-19T13:27:24;12.55;;;9.57;;
54384;SDS011;40284;52.878;5.998;2023-06-19T13:29:50;14.88;;;8.57;;
54384;SDS011;40284;52.878;5.998;2023-06-19T13:32:16;11.50;;;9.10;;
54384;SDS011;40284;52.878;5.998;2023-06-19T13:34:42;12.20;;;7.43;;
54384;SDS011;40284;52.878;5.998;2023-06-19T13:37:08;11.57;;;8.90;;
54384;SDS011;40284;52.878;5.998;2023-06-19T13:39:34;11.38;;;9.18;;
54384;SDS011;40284;52.878;5.998;2023-06-19T13:42:00;11.05;;;8.57;;
54384;SDS011;40284;52.878;5.998;2023-06-19T13:44:26;14.77;;;9.10;;
54384;SDS011;40284;52.878;5.998;2023-06-19T13:46:53;11.23;;;8.45;;
54384;SDS011;40284;52.878;5.998;2023-06-19T13:49:19;12.55;;;8.10;;
54384;SDS011;40284;52.878;5.998;2023-06-19T13:51:45;10.20;;;7.30;;
54384;SDS011;40284;52.878;5.998;2023-06-19T13:54:11;14.50;;;8.98;;
54384;SDS011;40284;52.878;5.998;2023-06-19T13:56:38;11.35;;;7.93;;
54384;SDS011;40284;52.878;5.998;2023-06-19T13:59:04;12.20;;;8.23;;
54384;SDS011;40284;52.878;5.998;2023-06-19T14:01:31;11.18;;;9.00;;
54384;SDS011;40284;52.878;5.998;2023-06-19T14:03:57;9.10;;;7.50;;
54384;SDS011;40284;52.878;5.998;2023-06-19T14:06:24;9.85;;;6.82;;
54384;SDS011;40284;52.878;5.998;2023-06-19T14:08:50;13.73;;;7.40;;
54384;SDS011;40284;52.878;5.998;2023-06-19T14:11:17;12.98;;;8.65;;
54384;SDS011;40284;52.878;5.998;2023-06-19T14:13:44;9.52;;;7.75;;
54384;SDS011;40284;52.878;5.998;2023-06-19T14:16:10;8.48;;;6.80;;
54384;SDS011;40284;52.878;5.998;2023-06-19T14:18:36;11.88;;;7.78;;
54384;SDS011;40284;52.878;5.998;2023-06-19T14:21:02;10.88;;;7.40;;
54384;SDS011;40284;52.878;5.998;2023-06-19T14:23:28;14.10;;;8.27;;
54384;SDS011;40284;52.878;5.998;2023-06-19T14:25:55;9.90;;;7.18;;
54384;SDS011;40284;52.878;5.998;2023-06-19T14:28:21;11.23;;;8.30;;
54384;SDS011;40284;52.878;5.998;2023-06-19T14:30:47;10.57;;;8.40;;
54384;SDS011;40284;52.878;5.998;2023-06-19T14:33:13;11.13;;;7.20;;
54384;SDS011;40284;52.878;5.998;2023-06-19T14:35:42;9.95;;;6.18;;
54384;SDS011;40284;52.878;5.998;2023-06-19T14:38:11;7.78;;;6.90;;
54384;SDS011;40284;52.878;5.998;2023-06-19T14:40:38;9.35;;;7.80;;
54384;SDS011;40284;52.878;5.998;2023-06-19T14:43:04;10.52;;;7.28;;
54384;SDS011;40284;52.878;5.998;2023-06-19T14:45:30;8.60;;;6.38;;